Time;durP1;ratioP1;P1;durP2;ratioP2;P2;SDS_P1;SDS_P2;PMS_P1;PMS_P2;Temp;Humidity;BMP_temperature;BMP_pressure;BME280_temperature;BME280_humidity;BME280_pressure;Samples;Min_cycle;Max_cycle;Signal;HPM_P1;HPM_P2
2022/09/11 00:01:57;;;;;;;12.20;5.75;;;;;;;13.21;100.00;99747.76;1714781;82;21023;-61
2022/09/11 00:04:27;;;;;;;10.53;5.97;;;;;;;13.25;99.89;99737.97;1725879;83;21038;-62
2022/09/11 00:06:56;;;;;;;11.38;5.70;;;;;;;13.26;99.77;99738.27;1725059;83;21493;-61
2022/09/11 00:09:26;;;;;;;12.93;5.90;;;;;;;13.27;99.69;99725.66;1725228;82;21018;-61
2022/09/11 00:11:56;;;;;;;12.58;5.75;;;;;;;13.27;99.28;99735.30;1724991;83;21051;-62
2022/09/11 00:14:28;;;;;;;12.40;5.53;;;;;;;13.29;99.20;99723.52;1721385;82;21030;-61
2022/09/11 00:16:58;;;;;;;8.45;5.17;;;;;;;13.30;99.00;99714.73;1725620;82;21042;-62
2022/09/11 00:19:28;;;;;;;10.40;5.85;;;;;;;13.32;98.92;99718.09;1716077;82;21048;-61
2022/09/11 00:21:57;;;;;;;10.78;5.62;;;;;;;13.33;98.85;99712.89;1723318;82;21067;-60
2022/09/11 00:24:27;;;;;;;9.28;5.58;;;;;;;13.33;98.94;99713.73;1725043;83;21027;-63
2022/09/11 00:26:57;;;;;;;11.97;5.72;;;;;;;13.34;99.03;99706.31;1725218;82;21027;-61
2022/09/11 00:29:26;;;;;;;10.32;5.80;;;;;;;13.35;99.08;99701.11;1725276;83;21622;-63
2022/09/11 00:31:56;;;;;;;11.40;6.28;;;;;;;13.35;99.15;99694.77;1713144;82;21034;-63
2022/09/11 00:34:26;;;;;;;9.38;5.72;;;;;;;13.36;99.30;99695.91;1707768;83;21059;-61
2022/09/11 00:36:56;;;;;;;11.43;6.50;;;;;;;13.36;99.39;99690.41;1725369;82;21090;-61
2022/09/11 00:39:27;;;;;;;12.13;5.83;;;;;;;13.36;99.54;99684.06;1725651;82;21125;-61
2022/09/11 00:41:57;;;;;;;10.10;6.35;;;;;;;13.36;99.61;99691.78;1714808;83;21098;-61
2022/09/11 00:44:31;;;;;;;12.23;6.33;;;;;;;13.35;99.65;99690.11;1724604;82;21094;-61
2022/09/11 00:47:03;;;;;;;13.10;6.45;;;;;;;13.36;99.81;99691.78;1725644;83;21173;-61
2022/09/11 00:49:46;;;;;;;9.88;6.50;;;;;;;13.37;99.97;99685.75;1721543;83;21281;-61
2022/09/11 00:52:34;;;;;;;11.20;6.72;;;;;;;13.37;100.00;99693.47;1720286;83;21517;-64
2022/09/11 00:55:13;;;;;;;11.40;6.22;;;;;;;13.38;100.00;99692.93;1718110;83;21407;-60
2022/09/11 00:57:49;;;;;;;12.65;6.47;;;;;;;13.36;100.00;99692.32;1725552;82;21050;-62
2022/09/11 01:00:19;;;;;;;11.55;6.58;;;;;;;13.35;100.00;99689.27;1712841;82;21026;-61
2022/09/11 01:02:49;;;;;;;9.55;6.10;;;;;;;13.30;100.00;99686.68;1712645;83;21027;-61
2022/09/11 01:05:21;;;;;;;10.50;6.08;;;;;;;13.29;100.00;99687.75;1712950;83;21026;-63
2022/09/11 01:07:53;;;;;;;9.98;6.22;;;;;;;13.28;100.00;99687.98;1724931;82;21030;-61
2022/09/11 01:10:46;;;;;;;13.35;8.55;;;;;;;13.26;100.00;99681.34;1725458;82;21078;-63
2022/09/11 01:13:37;;;;;;;22.17;12.40;;;;;;;13.25;100.00;99683.78;1716811;83;21022;-61
2022/09/11 01:16:20;;;;;;;24.45;14.68;;;;;;;13.23;100.00;99685.93;1714827;82;20991;-62
2022/09/11 01:19:19;;;;;;;27.40;17.55;;;;;;;13.23;100.00;99676.84;1712932;83;21054;-63
2022/09/11 01:22:06;;;;;;;28.62;18.02;;;;;;;13.23;100.00;99686.47;1699257;83;21023;-61
2022/09/11 01:25:00;;;;;;;26.20;18.42;;;;;;;13.23;100.00;99691.44;1725462;83;21634;-62
2022/09/11 01:27:49;;;;;;;30.37;19.95;;;;;;;13.21;100.00;99684.48;1717354;82;21455;-63
2022/09/11 01:30:27;;;;;;;34.27;21.90;;;;;;;13.21;100.00;99678.98;1725485;82;21051;-62
2022/09/11 01:33:17;;;;;;;31.40;21.70;;;;;;;13.21;100.00;99685.33;1712810;83;21000;-64
2022/09/11 01:36:05;;;;;;;31.30;21.90;;;;;;;13.22;100.00;99679.28;1707651;83;21031;-62
2022/09/11 01:39:01;;;;;;;35.73;23.55;;;;;;;13.23;100.00;99690.59;1725905;83;21102;-62
2022/09/11 01:42:00;;;;;;;37.30;23.75;;;;;;;13.24;100.00;99675.77;1714676;83;21018;-63
2022/09/11 01:44:38;;;;;;;31.45;22.87;;;;;;;13.25;100.00;99678.83;1721027;82;21468;-63
2022/09/11 01:47:09;;;;;;;33.92;22.58;;;;;;;13.26;100.00;99670.88;1720964;83;21054;-68
2022/09/11 01:50:01;;;;;;;32.25;20.95;;;;;;;13.26;100.00;99673.63;1688138;83;21075;-62
2022/09/11 01:52:35;;;;;;;35.25;23.95;;;;;;;13.27;100.00;99667.05;1725596;83;21039;-62
2022/09/11 01:55:13;;;;;;;36.23;23.40;;;;;;;13.28;100.00;99667.35;1725459;83;21538;-62
2022/09/11 01:57:55;;;;;;;32.13;22.87;;;;;;;13.29;100.00;99671.24;1713588;83;21074;-63
2022/09/11 02:00:25;;;;;;;33.60;24.05;;;;;;;13.29;100.00;99664.91;1725398;82;21034;-63
2022/09/11 02:03:05;;;;;;;33.67;23.15;;;;;;;13.32;100.00;99657.56;1719427;83;21051;-63
2022/09/11 02:05:49;;;;;;;38.13;25.37;;;;;;;13.33;100.00;99658.70;1721092;83;21082;-63
2022/09/11 02:08:26;;;;;;;33.73;23.85;;;;;;;13.36;100.00;99662.89;1718504;83;21046;-63
2022/09/11 02:11:05;;;;;;;34.38;23.47;;;;;;;13.37;100.00;99654.95;1720771;83;21023;-62
2022/09/11 02:14:09;;;;;;;33.98;23.55;;;;;;;13.39;100.00;99660.22;1720570;83;21090;-65
2022/09/11 02:16:54;;;;;;;38.78;24.63;;;;;;;13.38;100.00;99655.25;1696834;83;21500;-64
2022/09/11 02:19:27;;;;;;;34.10;24.27;;;;;;;13.40;100.00;99658.60;1708366;83;21054;-63
2022/09/11 02:21:57;;;;;;;37.33;24.35;;;;;;;13.41;100.00;99652.03;1710407;83;21054;-63
2022/09/11 02:24:26;;;;;;;37.55;23.25;;;;;;;13.42;100.00;99644.61;1725493;82;21066;-62
2022/09/11 02:26:59;;;;;;;32.88;22.55;;;;;;;13.41;100.00;99647.90;1724382;83;21042;-63
2022/09/11 02:29:31;;;;;;;30.08;23.42;;;;;;;13.43;100.00;99644.91;1690924;83;20999;-62
2022/09/11 02:32:00;;;;;;;32.70;22.48;;;;;;;13.44;100.00;99642.46;1710446;83;21523;-62
2022/09/11 02:34:36;;;;;;;30.23;22.65;;;;;;;13.43;100.00;99644.38;1722814;82;21066;-63
2022/09/11 02:37:27;;;;;;;29.02;20.70;;;;;;;13.45;100.00;99642.77;1683897;83;21508;-62
2022/09/11 02:40:25;;;;;;;35.10;22.58;;;;;;;13.47;100.00;99647.50;1713934;83;21682;-61
2022/09/11 02:43:23;;;;;;;32.13;22.93;;;;;;;13.48;100.00;99656.89;1718671;83;21026;-62
2022/09/11 02:46:27;;;;;;;31.10;21.50;;;;;;;13.49;100.00;99657.20;1708272;83;21077;-62
2022/09/11 02:49:08;;;;;;;31.05;21.90;;;;;;;13.50;100.00;99656.12;1692612;83;21011;-61
2022/09/11 02:52:05;;;;;;;29.98;21.97;;;;;;;13.51;100.00;99655.05;1725796;83;21495;-62
2022/09/11 02:55:01;;;;;;;27.98;20.77;;;;;;;13.52;100.00;99658.10;1713301;82;21570;-62
2022/09/11 02:57:39;;;;;;;30.05;20.80;;;;;;;13.55;100.00;99657.63;1712766;83;21038;-66
2022/09/11 03:00:10;;;;;;;;;;;;;;;13.57;100.00;99660.98;1704706;83;21027;-61
2022/09/11 03:02:42;;;;;;;27.10;19.20;;;;;;;13.60;100.00;99665.18;1725493;83;20195;-63
2022/09/11 03:05:12;;;;;;;26.23;19.62;;;;;;;13.60;100.00;99661.05;1716043;82;21027;-63
2022/09/11 03:07:43;;;;;;;24.15;18.48;;;;;;;13.62;100.00;99662.49;1711287;83;21087;-62
2022/09/11 03:10:12;;;;;;;21.75;17.48;;;;;;;13.66;100.00;99667.02;1725448;83;21497;-62
2022/09/11 03:12:42;;;;;;;24.47;17.87;;;;;;;13.68;100.00;99669.00;1725488;83;21471;-62
2022/09/11 03:15:12;;;;;;;20.70;17.25;;;;;;;13.71;100.00;99660.27;1725523;83;21035;-64
2022/09/11 03:17:44;;;;;;;22.75;17.42;;;;;;;13.75;100.00;99669.73;1725539;83;21063;-64
2022/09/11 03:20:16;;;;;;;19.82;16.15;;;;;;;13.77;100.00;99675.00;1713015;83;21046;-63
2022/09/11 03:22:47;;;;;;;22.13;16.42;;;;;;;13.81;100.00;99681.72;1725569;83;21094;-63
2022/09/11 03:25:18;;;;;;;20.32;16.40;;;;;;;13.82;100.00;99679.27;1725630;83;21096;-61
2022/09/11 03:27:48;;;;;;;21.07;17.37;;;;;;;13.84;100.00;99700.52;1725132;83;21018;-67
2022/09/11 03:30:19;;;;;;;17.23;12.80;;;;;;;13.86;100.00;99694.23;1712941;82;21015;-64
2022/09/11 03:32:51;;;;;;;13.83;11.12;;;;;;;13.89;100.00;99694.60;1725575;82;21034;-61
2022/09/11 03:35:20;;;;;;;10.68;7.40;;;;;;;13.90;100.00;99705.08;1725392;83;21062;-63
2022/09/11 03:37:50;;;;;;;7.80;6.10;;;;;;;13.91;100.00;99704.84;1725736;83;21035;-62
2022/09/11 03:40:20;;;;;;;7.85;5.83;;;;;;;13.91;100.00;99708.97;1721204;82;21078;-63
2022/09/11 03:42:49;;;;;;;6.12;4.75;;;;;;;13.92;100.00;99713.95;1708340;83;21085;-61
2022/09/11 03:45:20;;;;;;;6.42;4.85;;;;;;;13.90;100.00;99720.23;1720989;82;21051;-62
2022/09/11 03:47:49;;;;;;;5.37;3.87;;;;;;;13.87;100.00;99724.83;1717082;83;21043;-62
2022/09/11 03:50:18;;;;;;;6.35;4.50;;;;;;;13.85;100.00;99730.58;1724985;83;20999;-62
2022/09/11 03:52:49;;;;;;;6.22;4.08;;;;;;;13.77;100.00;99730.91;1725212;83;21106;-61
2022/09/11 03:55:19;;;;;;;7.15;4.92;;;;;;;13.67;100.00;99733.93;1725396;82;21018;-66
2022/09/11 03:57:49;;;;;;;7.33;4.47;;;;;;;13.56;100.00;99729.50;1719142;83;21102;-62
2022/09/11 04:00:18;;;;;;;5.90;4.67;;;;;;;13.42;100.00;99740.38;1717399;82;21043;-61
2022/09/11 04:02:49;;;;;;;6.72;5.28;;;;;;;13.30;100.00;99736.73;1712740;83;21043;-63
2022/09/11 04:05:27;;;;;;;8.23;5.15;;;;;;;13.24;100.00;99730.79;1711261;82;21083;-64
2022/09/11 04:07:58;;;;;;;7.15;4.90;;;;;;;13.18;100.00;99734.47;1725455;82;21087;-62
2022/09/11 04:10:28;;;;;;;7.30;4.90;;;;;;;13.13;100.00;99735.13;1725760;83;21158;-65
2022/09/11 04:13:00;;;;;;;7.75;5.33;;;;;;;13.09;100.00;99742.69;1725552;83;21026;-61
2022/09/11 04:15:31;;;;;;;8.83;5.45;;;;;;;13.08;100.00;99743.77;1725639;83;21003;-61
2022/09/11 04:18:03;;;;;;;9.73;4.85;;;;;;;13.06;100.00;99750.03;1713007;81;21138;-61
2022/09/11 04:20:40;;;;;;;5.78;4.67;;;;;;;13.04;100.00;99747.51;1698983;82;21110;-62
2022/09/11 04:23:10;;;;;;;6.80;5.03;;;;;;;13.03;100.00;99748.58;1712946;83;21023;-62
2022/09/11 04:25:39;;;;;;;7.47;4.78;;;;;;;13.06;100.00;99752.78;1725022;82;21046;-62
2022/09/11 04:28:10;;;;;;;7.00;4.83;;;;;;;13.04;100.00;99753.01;1724740;82;21096;-62
2022/09/11 04:30:41;;;;;;;8.38;4.95;;;;;;;13.03;100.00;99751.33;1725166;82;21031;-62
2022/09/11 04:33:11;;;;;;;6.00;4.33;;;;;;;13.06;100.00;99752.78;1688004;83;21505;-63
2022/09/11 04:35:42;;;;;;;5.97;4.30;;;;;;;13.08;100.00;99750.10;1725549;83;21031;-62
2022/09/11 04:38:12;;;;;;;8.20;5.12;;;;;;;13.12;100.00;99751.86;1724933;83;21463;-63
2022/09/11 04:40:42;;;;;;;8.45;4.83;;;;;;;13.14;100.00;99754.69;1716768;83;21532;-62
2022/09/11 04:43:12;;;;;;;7.47;5.10;;;;;;;13.12;100.00;99760.95;1722203;83;21462;-64
2022/09/11 04:45:42;;;;;;;8.23;5.58;;;;;;;13.10;100.00;99758.13;1725633;83;21046;-62
2022/09/11 04:48:11;;;;;;;7.05;5.95;;;;;;;13.10;100.00;99756.75;1712546;82;21427;-62
2022/09/11 04:50:41;;;;;;;11.48;5.80;;;;;;;13.08;100.00;99747.89;1725389;83;21026;-62
2022/09/11 04:53:18;;;;;;;7.83;5.05;;;;;;;13.10;100.00;99752.62;1724490;83;21142;-62
2022/09/11 04:55:50;;;;;;;8.55;5.30;;;;;;;13.08;100.00;99751.48;1708170;83;21099;-62
2022/09/11 04:58:21;;;;;;;10.68;4.75;;;;;;;13.10;100.00;99756.75;1721176;83;21046;-63
2022/09/11 05:00:53;;;;;;;6.30;4.80;;;;;;;13.10;100.00;99760.88;1712982;83;21003;-61
2022/09/11 05:03:23;;;;;;;6.37;4.50;;;;;;;13.09;100.00;99769.66;1712945;83;21078;-63
2022/09/11 05:05:52;;;;;;;6.78;4.67;;;;;;;13.13;100.00;99765.91;1714198;83;21046;-64
2022/09/11 05:08:25;;;;;;;8.53;4.25;;;;;;;13.13;100.00;99750.79;1681820;84;21072;-62
2022/09/11 05:10:56;;;;;;;7.42;4.85;;;;;;;13.13;100.00;99754.38;1714066;83;21604;-62
2022/09/11 05:13:30;;;;;;;6.47;4.30;;;;;;;13.14;100.00;99753.84;1725815;83;21102;-61
2022/09/11 05:16:03;;;;;;;5.03;3.98;;;;;;;13.12;100.00;99751.86;1713851;83;20995;-62
2022/09/11 05:18:34;;;;;;;5.35;3.80;;;;;;;13.12;100.00;99758.20;1713502;82;21078;-62
2022/09/11 05:21:13;;;;;;;4.97;3.67;;;;;;;13.13;100.00;99765.91;1713433;82;21102;-62
2022/09/11 05:23:52;;;;;;;4.28;3.50;;;;;;;13.11;100.00;99773.55;1725426;83;21039;-62
2022/09/11 05:26:25;;;;;;;5.90;3.50;;;;;;;13.08;100.00;99772.64;1696439;83;21082;-63
2022/09/11 05:28:56;;;;;;;5.10;3.85;;;;;;;13.04;100.00;99775.55;1672695;83;21051;-63
2022/09/11 05:31:27;;;;;;;5.28;3.77;;;;;;;13.01;100.00;99781.81;1725949;82;21035;-62
2022/09/11 05:33:59;;;;;;;5.47;3.47;;;;;;;12.99;100.00;99781.16;1712768;83;21035;-62
2022/09/11 05:36:34;;;;;;;7.45;3.15;;;;;;;12.97;100.00;99784.67;1725833;83;21097;-65
2022/09/11 05:39:04;;;;;;;3.33;2.55;;;;;;;12.98;100.00;99784.98;1712801;83;21102;-62
2022/09/11 05:41:34;;;;;;;4.03;3.20;;;;;;;12.99;100.00;99783.91;1725454;83;21043;-62
2022/09/11 05:44:04;;;;;;;3.02;2.72;;;;;;;13.01;100.00;99794.72;1725679;82;21050;-64
2022/09/11 05:46:34;;;;;;;3.10;2.00;;;;;;;13.01;100.00;99798.31;1713963;83;21027;-62
2022/09/11 05:49:04;;;;;;;3.00;2.70;;;;;;;13.01;100.00;99794.19;1713835;82;21055;-62
2022/09/11 05:51:36;;;;;;;2.60;2.40;;;;;;;12.99;100.00;99793.54;1712927;82;21063;-62
2022/09/11 05:54:07;;;;;;;7.58;2.20;;;;;;;13.01;100.00;99784.55;1725726;82;21042;-62
2022/09/11 05:56:37;;;;;;;2.27;1.85;;;;;;;13.03;100.00;99787.61;1712627;83;21552;-63
2022/09/11 05:59:16;;;;;;;2.37;1.92;;;;;;;13.04;100.00;99790.14;1712632;83;20991;-62
2022/09/11 06:01:49;;;;;;;2.25;2.00;;;;;;;13.04;100.00;99784.63;1713057;82;21038;-63
2022/09/11 06:04:38;;;;;;;2.00;1.77;;;;;;;13.01;100.00;99791.97;1725343;82;21549;-61
2022/09/11 06:07:08;;;;;;;2.30;1.87;;;;;;;12.96;100.00;99799.49;1716978;83;21080;-61
2022/09/11 06:09:39;;;;;;;4.70;2.20;;;;;;;12.93;100.00;99792.23;1720716;83;21046;-61
2022/09/11 06:12:11;;;;;;;2.55;2.12;;;;;;;12.93;100.00;99788.11;1725647;83;21046;-62
2022/09/11 06:14:43;;;;;;;2.92;2.00;;;;;;;12.93;100.00;99780.70;1712676;83;21058;-62
2022/09/11 06:17:13;;;;;;;2.47;1.65;;;;;;;12.94;100.00;99787.05;1725281;82;20999;-61
2022/09/11 06:19:42;;;;;;;2.05;1.82;;;;;;;12.95;100.00;99787.35;1727318;83;21031;-62
2022/09/11 06:22:12;;;;;;;2.02;1.45;;;;;;;12.98;100.00;99790.48;1728315;81;21038;-61
2022/09/11 06:24:43;;;;;;;1.60;1.42;;;;;;;13.01;100.00;99790.06;1727830;82;21474;-65
2022/09/11 06:27:12;;;;;;;2.50;2.00;;;;;;;13.04;100.00;99789.30;1716547;81;21006;-62
2022/09/11 06:29:44;;;;;;;2.40;1.98;;;;;;;13.08;100.00;99791.89;1728053;81;21074;-61
2022/09/11 06:32:14;;;;;;;1.90;1.70;;;;;;;13.10;100.00;99794.72;1728238;83;21477;-62
2022/09/11 06:34:43;;;;;;;1.87;1.70;;;;;;;13.13;100.00;99797.55;1717952;83;21042;-62
2022/09/11 06:37:14;;;;;;;1.60;1.50;;;;;;;13.12;100.00;99794.48;1727077;82;21078;-62
2022/09/11 06:39:43;;;;;;;2.75;2.00;;;;;;;13.13;100.00;99797.02;1728035;82;21089;-61
2022/09/11 06:42:15;;;;;;;2.52;2.00;;;;;;;13.15;100.00;99790.75;1727847;82;21019;-62
2022/09/11 06:44:45;;;;;;;2.15;1.95;;;;;;;13.18;100.00;99792.23;1727727;82;20987;-63
2022/09/11 06:47:16;;;;;;;2.67;1.98;;;;;;;13.22;100.00;99781.91;1715122;83;21063;-63
2022/09/11 06:49:45;;;;;;;2.45;1.90;;;;;;;13.28;100.00;99781.52;1727531;83;20995;-62
2022/09/11 06:52:20;;;;;;;2.90;2.50;;;;;;;13.32;99.59;99784.12;1715590;83;21071;-62
2022/09/11 06:54:54;;;;;;;2.15;1.95;;;;;;;13.36;99.28;99790.84;1715443;83;21086;-63
2022/09/11 06:57:23;;;;;;;2.47;2.20;;;;;;;13.44;99.02;99793.81;1705142;82;21499;-63
2022/09/11 06:59:52;;;;;;;3.00;2.40;;;;;;;13.50;98.54;99795.64;1717658;82;21114;-63
2022/09/11 07:02:22;;;;;;;2.60;2.40;;;;;;;13.54;98.19;99795.48;1717642;83;21075;-62
2022/09/11 07:04:52;;;;;;;2.15;1.95;;;;;;;13.61;98.12;99803.95;1693127;83;21049;-63
2022/09/11 07:07:22;;;;;;;2.98;2.52;;;;;;;13.63;97.42;99800.44;1718056;83;21063;-63
2022/09/11 07:09:52;;;;;;;2.92;2.20;;;;;;;13.68;97.08;99812.16;1713089;83;21056;-62
2022/09/11 07:12:24;;;;;;;2.75;2.25;;;;;;;13.73;96.64;99816.97;1711139;82;21083;-64
2022/09/11 07:14:53;;;;;;;8.83;7.92;;;;;;;13.74;95.99;99824.16;1705125;83;21070;-62
2022/09/11 07:17:23;;;;;;;3.67;3.08;;;;;;;13.76;95.67;99820.09;1717840;83;21099;-62
2022/09/11 07:19:52;;;;;;;3.20;2.80;;;;;;;13.79;95.38;99818.79;1708244;83;21134;-64
2022/09/11 07:22:23;;;;;;;2.65;2.40;;;;;;;13.81;95.24;99822.15;1700060;82;21122;-62
2022/09/11 07:24:55;;;;;;;3.83;2.45;;;;;;;13.83;94.94;99818.63;1707493;82;21031;-61
2022/09/11 07:27:25;;;;;;;2.83;2.33;;;;;;;13.85;94.57;99826.12;1718349;81;21035;-63
2022/09/11 07:29:54;;;;;;;2.10;1.70;;;;;;;13.83;94.14;99826.35;1726097;83;21062;-62
2022/09/11 07:32:26;;;;;;;2.10;1.90;;;;;;;13.82;93.94;99827.95;1727424;82;21535;-62
2022/09/11 07:34:55;;;;;;;2.45;1.87;;;;;;;13.81;93.83;99824.37;1727206;83;21474;-62
2022/09/11 07:37:25;;;;;;;3.30;2.30;;;;;;;13.80;93.52;99831.48;1727933;83;21506;-61
2022/09/11 07:39:58;;;;;;;3.72;2.00;;;;;;;13.79;93.27;99827.05;1727617;83;21058;-62
2022/09/11 07:42:32;;;;;;;2.47;2.15;;;;;;;13.80;93.27;99830.11;1715546;83;21097;-63
2022/09/11 07:45:02;;;;;;;2.27;2.05;;;;;;;13.76;92.42;99828.89;1727000;83;21098;-62
2022/09/11 07:47:33;;;;;;;2.80;2.30;;;;;;;13.76;92.62;99828.89;1718244;83;21070;-64
2022/09/11 07:50:03;;;;;;;3.65;2.22;;;;;;;13.75;92.67;99821.16;1723191;83;21041;-63
2022/09/11 07:52:35;;;;;;;3.37;2.15;;;;;;;13.77;92.95;99809.38;1717136;83;21031;-64
2022/09/11 07:55:07;;;;;;;4.60;2.42;;;;;;;13.80;92.86;99808.08;1725558;82;21087;-63
2022/09/11 07:57:37;;;;;;;2.50;2.15;;;;;;;13.82;93.00;99815.56;1718646;82;21106;-63
2022/09/11 08:00:10;;;;;;;2.70;2.25;;;;;;;13.83;92.95;99815.33;1726168;81;21054;-62
2022/09/11 08:02:49;;;;;;;3.00;2.37;;;;;;;13.84;92.67;99821.69;1716807;83;21046;-67
2022/09/11 08:05:19;;;;;;;2.30;2.10;;;;;;;13.84;92.53;99821.69;1726118;83;21114;-62
2022/09/11 08:07:51;;;;;;;2.85;2.30;;;;;;;13.84;92.62;99825.27;1716921;83;21102;-61
2022/09/11 08:10:22;;;;;;;4.70;2.55;;;;;;;13.85;92.46;99821.98;1727287;83;21043;-63
2022/09/11 08:12:53;;;;;;;3.25;2.40;;;;;;;13.82;92.14;99827.95;1700986;83;21039;-63
2022/09/11 08:15:25;;;;;;;3.35;2.75;;;;;;;13.77;91.87;99825.06;1727097;83;21086;-66
2022/09/11 08:17:55;;;;;;;4.33;2.90;;;;;;;13.71;91.84;99819.95;1727325;81;21116;-63
2022/09/11 08:20:25;;;;;;;3.27;2.90;;;;;;;13.71;91.89;99828.75;1722224;82;21047;-65
2022/09/11 08:22:55;;;;;;;4.72;3.02;;;;;;;13.71;91.90;99817.20;1720577;81;21066;-63
2022/09/11 08:25:27;;;;;;;3.95;3.40;;;;;;;13.72;91.67;99815.28;1671323;81;21032;-64
2022/09/11 08:27:58;;;;;;;5.25;2.80;;;;;;;13.73;91.70;99815.59;1709443;83;21046;-65
2022/09/11 08:30:28;;;;;;;3.55;3.12;;;;;;;13.77;91.61;99807.16;1727447;82;21140;-63
2022/09/11 08:32:57;;;;;;;4.50;3.72;;;;;;;13.81;91.90;99811.13;1727482;83;21023;-66
2022/09/11 08:35:28;;;;;;;4.85;3.58;;;;;;;13.89;91.80;99807.52;1727643;81;21023;-65
2022/09/11 08:37:59;;;;;;;6.92;3.15;;;;;;;13.97;91.71;99815.98;1727504;83;21062;-64
2022/09/11 08:40:29;;;;;;;5.17;3.70;;;;;;;14.01;91.30;99812.22;1727240;81;21038;-66
2022/09/11 08:43:01;;;;;;;3.80;3.40;;;;;;;14.06;91.01;99806.85;1727850;83;21534;-64
2022/09/11 08:45:34;;;;;;;5.12;4.20;;;;;;;14.11;90.76;99805.07;1727348;81;21066;-63
2022/09/11 08:48:05;;;;;;;5.45;4.10;;;;;;;14.18;90.38;99802.21;1727354;82;20999;-64
2022/09/11 08:50:39;;;;;;;5.60;3.87;;;;;;;14.22;90.34;99808.39;1727821;83;21553;-63
2022/09/11 08:53:17;;;;;;;4.28;3.85;;;;;;;14.26;90.07;99816.48;1687066;82;21074;-63
2022/09/11 08:55:56;;;;;;;4.45;3.02;;;;;;;14.26;89.35;99817.03;1722232;82;21067;-63
2022/09/11 08:58:31;;;;;;;4.03;3.30;;;;;;;14.28;89.47;99820.38;1682994;83;21634;-62
2022/09/11 09:01:19;;;;;;;3.83;3.08;;;;;;;14.26;88.91;99820.63;1727203;83;21054;-62
2022/09/11 09:04:13;;;;;;;3.87;3.17;;;;;;;14.24;88.73;99818.64;1716974;83;21499;-64
2022/09/11 09:06:51;;;;;;;3.20;2.90;;;;;;;14.21;88.67;99810.84;1727515;83;21022;-64
2022/09/11 09:09:39;;;;;;;;;;;;;;;14.22;89.05;99819.95;1691443;83;21058;-63
2022/09/11 09:12:41;;;;;;;2.95;2.70;;;;;;;14.24;89.32;99819.18;1715259;83;20585;-62
2022/09/11 09:15:38;;;;;;;2.50;2.30;;;;;;;14.22;89.47;99830.97;1715079;83;21770;-64
2022/09/11 09:18:16;;;;;;;3.25;2.52;;;;;;;14.19;89.21;99828.15;1727449;81;21050;-61
2022/09/11 09:20:51;;;;;;;6.33;2.80;;;;;;;14.16;89.31;99827.24;1727722;81;21505;-62
2022/09/11 09:23:24;;;;;;;5.08;3.40;;;;;;;14.15;89.58;99817.30;1715541;83;21043;-63
2022/09/11 09:25:54;;;;;;;4.92;3.22;;;;;;;14.20;90.00;99817.97;1728100;83;21093;-64
2022/09/11 09:28:30;;;;;;;4.30;3.33;;;;;;;14.23;89.91;99817.50;1727922;81;21517;-64
2022/09/11 09:31:06;;;;;;;3.77;3.40;;;;;;;14.26;89.85;99813.73;1727376;81;21054;-65
2022/09/11 09:33:40;;;;;;;4.10;3.62;;;;;;;14.33;90.02;99818.33;1732844;81;21107;-64
2022/09/11 09:36:17;;;;;;;4.12;3.45;;;;;;;14.37;89.69;99818.16;1717424;83;21031;-64
2022/09/11 09:38:47;;;;;;;4.15;3.60;;;;;;;14.40;89.31;99813.02;1714763;83;21082;-63
2022/09/11 09:41:48;;;;;;;4.33;3.60;;;;;;;14.46;89.38;99818.98;1717890;83;21105;-63
2022/09/11 09:44:24;;;;;;;4.28;3.25;;;;;;;14.49;88.83;99818.51;1708487;83;21076;-64
2022/09/11 09:46:55;;;;;;;6.33;3.98;;;;;;;14.55;88.77;99814.80;1716730;83;21030;-62
2022/09/11 09:49:32;;;;;;;6.20;3.70;;;;;;;14.61;88.50;99817.69;1727100;82;21102;-64
2022/09/11 09:52:18;;;;;;;6.00;3.95;;;;;;;14.66;88.12;99820.56;1713045;81;21051;-66
2022/09/11 09:55:04;;;;;;;4.85;4.35;;;;;;;14.68;87.39;99817.03;1684392;84;21055;-64
2022/09/11 09:57:36;;;;;;;5.67;4.15;;;;;;;14.72;87.26;99814.09;1716419;83;21055;-63
2022/09/11 10:00:15;;;;;;;4.62;4.10;;;;;;;14.73;85.90;99817.99;1716777;83;21091;-64
2022/09/11 10:02:56;;;;;;;5.17;4.62;;;;;;;14.74;86.24;99812.78;1717076;83;21039;-63
2022/09/11 10:05:40;;;;;;;7.65;6.42;;;;;;;14.78;86.66;99808.46;1707166;83;21027;-63
2022/09/11 10:08:32;;;;;;;8.23;7.42;;;;;;;14.85;86.82;99806.97;1683835;83;21050;-62
2022/09/11 10:11:07;;;;;;;16.62;9.88;;;;;;;14.90;86.51;99809.84;1717395;83;21118;-64
2022/09/11 10:13:41;;;;;;;7.28;5.60;;;;;;;14.92;85.82;99811.81;1716464;83;21058;-63
2022/09/11 10:16:26;;;;;;;7.10;5.70;;;;;;;14.97;86.00;99811.13;1705321;83;21032;-62
2022/09/11 10:18:56;;;;;;;8.05;5.97;;;;;;;14.99;85.75;99807.05;1717610;82;21063;-63
2022/09/11 10:21:29;;;;;;;6.70;5.55;;;;;;;15.01;85.44;99800.75;1704388;83;21182;-63
2022/09/11 10:24:03;;;;;;;6.55;5.20;;;;;;;15.02;85.45;99804.34;1650744;87;21075;-63
2022/09/11 10:26:44;;;;;;;5.87;4.95;;;;;;;15.04;84.71;99807.70;1640156;87;21521;-63
2022/09/11 10:29:25;;;;;;;7.05;5.62;;;;;;;15.04;84.11;99803.02;1662345;85;21057;-63
2022/09/11 10:31:58;;;;;;;7.22;4.80;;;;;;;15.04;84.53;99802.19;1653256;86;21092;-63
2022/09/11 10:34:36;;;;;;;5.75;4.85;;;;;;;15.07;84.79;99812.73;1605519;88;21085;-63
2022/09/11 10:37:16;;;;;;;6.42;4.70;;;;;;;15.08;84.24;99804.76;1608853;88;21034;-64
2022/09/11 10:39:46;;;;;;;6.30;4.60;;;;;;;15.07;83.98;99803.92;1632161;87;21080;-62
2022/09/11 10:42:22;;;;;;;5.72;4.22;;;;;;;15.08;84.02;99806.14;1663537;85;21132;-65
2022/09/11 10:44:52;;;;;;;6.35;4.72;;;;;;;15.08;83.85;99806.14;1690382;83;21094;-64
2022/09/11 10:47:29;;;;;;;5.42;3.80;;;;;;;15.05;84.10;99802.48;1726091;82;21067;-62
2022/09/11 10:50:24;;;;;;;4.17;3.75;;;;;;;15.10;84.36;99809.50;1701636;83;21125;-63
2022/09/11 10:53:16;;;;;;;6.67;4.33;;;;;;;15.12;84.64;99795.75;1718145;83;21011;-63
2022/09/11 10:55:59;;;;;;;4.65;3.35;;;;;;;15.13;84.53;99796.05;1718150;83;21070;-62
2022/09/11 10:58:32;;;;;;;4.42;3.98;;;;;;;15.15;83.87;99787.53;1723605;83;21096;-62
2022/09/11 11:01:02;;;;;;;6.45;4.05;;;;;;;15.17;84.02;99781.23;1720428;83;21446;-64
2022/09/11 11:03:31;;;;;;;4.95;3.80;;;;;;;15.18;83.20;99777.39;1727244;81;21030;-65
2022/09/11 11:06:18;;;;;;;7.53;3.95;;;;;;;15.20;83.03;99776.60;1714989;83;21451;-63
2022/09/11 11:08:57;;;;;;;4.17;3.77;;;;;;;15.22;82.58;99778.04;1705469;83;21078;-62
2022/09/11 11:11:39;;;;;;;4.00;3.60;;;;;;;15.27;83.10;99772.33;1727567;81;21070;-63
2022/09/11 11:14:48;;;;;;;6.20;3.70;;;;;;;15.33;83.05;99774.95;1715292;83;21017;-66
2022/09/11 11:17:40;;;;;;;8.50;3.95;;;;;;;15.41;83.18;99774.56;1721654;83;21089;-63
2022/09/11 11:20:51;;;;;;;5.05;4.55;;;;;;;15.49;81.42;99770.04;1720160;83;21022;-64
2022/09/11 11:24:07;;;;;;;5.25;4.75;;;;;;;15.52;81.24;99772.85;1710154;83;21066;-64
2022/09/11 11:27:22;;;;;;;9.90;5.30;;;;;;;15.61;81.66;99770.60;1727650;83;21094;-63
2022/09/11 11:30:13;;;;;;;4.30;3.90;;;;;;;15.66;80.75;99773.47;1716703;83;21043;-64
2022/09/11 11:33:25;;;;;;;5.47;4.58;;;;;;;15.69;80.11;99762.77;1709938;83;21564;-68
2022/09/11 11:36:14;;;;;;;6.28;4.72;;;;;;;15.69;79.85;99766.06;1714903;83;21066;-64
2022/09/11 11:39:03;;;;;;;4.20;3.80;;;;;;;15.72;80.26;99755.91;1715490;83;21035;-63
2022/09/11 11:41:36;;;;;;;4.17;3.60;;;;;;;15.74;80.31;99760.64;1727772;83;21097;-64
2022/09/11 11:44:09;;;;;;;5.92;4.62;;;;;;;15.79;80.52;99757.97;1727708;83;21101;-64
2022/09/11 11:46:43;;;;;;;5.17;4.35;;;;;;;15.79;80.01;99762.95;1727386;83;21098;-63
2022/09/11 11:49:18;;;;;;;6.50;4.47;;;;;;;15.79;79.62;99766.27;1710773;82;21103;-65
2022/09/11 11:51:53;;;;;;;5.42;4.55;;;;;;;15.74;79.37;99756.50;1717494;83;21063;-63
2022/09/11 11:54:33;;;;;;;5.67;5.08;;;;;;;15.77;80.19;99752.70;1717335;83;21039;-62
2022/09/11 11:57:10;;;;;;;6.80;4.55;;;;;;;15.82;80.58;99763.00;1705009;83;21007;-63
2022/09/11 11:59:52;;;;;;;5.45;4.78;;;;;;;15.85;80.33;99767.49;1717663;83;21027;-62
2022/09/11 12:02:30;;;;;;;6.97;5.12;;;;;;;15.84;80.17;99763.59;1717388;82;21107;-68
2022/09/11 12:05:23;;;;;;;5.62;4.80;;;;;;;15.81;79.71;99764.09;1717111;82;21070;-63
2022/09/11 12:07:52;;;;;;;4.78;4.28;;;;;;;15.79;79.90;99764.34;1716985;82;21066;-63